x

8454049 - Quonset Point, Ri (qptr1) Weather Station

7:54 - Wed 24th Aug 2016 All times are EDT. -4 hours from GMT.

  • Wind
    9mph, 10mph gusts
  • Sea Temp 76°f
  • Luft Temp 74°f
  • Sea Pressure 1022.2mb
  • 8454049 - Quonset Point, Ri
  • 8454049 - Quonset Point, Ri

More Historic Weather Station data

Upgrade to MSW Pro to gain access to the past 30 days of data for over 8000 Wavebouys and Weather Stations around the globe.

Join Pro

Comparision Forecast

View Surf forecast
   
Mi 08/24 7:54 9 10 mph 1022.2mb 76f 74f
7:48  -  mph 1022.3mb 76f -
7:42  -  mph 1022.3mb 76f -
7:36  -  mph 1022.2mb 76f -
7:30 9 13 mph 1022.2mb 76f 75f
7:24 10 13 mph 1022.2mb 76f 76f
7:18  -  mph 1022.1mb - -
7:12  -  mph 1022mb 76f 76f
7:00  -  mph 1021.9mb 75f 76f
6:54  -  mph 1021.9mb 75f 77f
6:48  -  mph - 76f -
6:42  -  mph - 76f -
6:36  -  mph - 76f -
6:30 13 17 mph 1021.9mb 76f 77f
6:24 15 17 mph 1021.8mb 76f 78f
6:18  -  mph 1021.8mb - -
6:12  -  mph 1021.7mb 76f 78f
6:06  -  mph 1021.7mb 76f 78f
6:00 15 18 mph 1021.7mb 76f 78f
5:54 15 18 mph 1021.7mb 76f 78f
5:48 14 17 mph 1021.7mb 76f 78f
5:42  -  mph - 76f 78f
5:36  -  mph - 75f 78f
5:30 16 18 mph 1021.9mb 75f 78f
5:24 17 21 mph 1021.9mb 75f 79f
5:18 16 20 mph 1021.9mb 75f 79f
5:12 15 20 mph 1021.9mb 75f 79f
5:06 17 20 mph 1021.8mb 75f 79f
5:00 14 18 mph 1021.8mb 75f 79f
4:54 15 20 mph 1021.8mb 75f 79f
4:48 16 18 mph 1021.9mb 75f 80f
4:42 17 20 mph 1021.9mb 75f 80f
4:36 17 20 mph 1021.9mb 75f 80f
4:30 16 18 mph 1021.9mb 74f 80f
4:24 16 17 mph 1021.9mb 74f 80f
4:12 16 20 mph 1022mb 74f 80f
4:06 16 20 mph 1022mb 74f 80f
4:00 17 18 mph 1022mb 74f 80f
3:54 16 17 mph 1022mb 74f 80f
3:48 16 20 mph 1022.1mb 74f 80f
3:42 17 20 mph 1022.1mb 74f 80f
3:36 17 20 mph 1022.2mb 74f 80f
3:30 16 20 mph 1022.3mb 74f 79f
3:24 17 20 mph 1022.4mb 74f 80f
3:18 17 20 mph 1022.4mb 74f 79f
3:12 16 20 mph 1022.5mb 74f 78f
3:06 18 21 mph 1022.6mb 74f 77f
3:00 17 21 mph 1022.6mb 75f 78f
2:54 18 21 mph 1022.7mb 75f 78f
2:48 16 20 mph - - -
2:36 14 18 mph 1022.7mb 75f 79f
2:30 15 18 mph 1022.7mb 74f 80f
2:24 15 18 mph 1022.7mb 74f 78f
2:18 16 20 mph 1022.9mb 74f 77f
2:12 17 21 mph 1022.9mb 74f 77f
2:06 17 21 mph 1023mb 74f 78f
2:00 16 20 mph 1023.1mb 74f 78f
1:54 17 22 mph 1023.1mb 74f 78f
1:48 14 18 mph 1023.2mb 74f 77f
1:42 13 16 mph 1023.2mb 74f 78f
1:36 15 17 mph 1023.2mb 74f 77f
1:30 14 16 mph 1023.2mb 74f 77f
1:24 14 16 mph 1023.3mb 74f 78f
1:18 14 16 mph 1023.3mb 74f 78f
1:12 11 16 mph 1023.4mb 74f 78f
1:06 14 16 mph 1023.4mb 74f 78f
1:00 7 9 mph 1023.4mb 74f 79f
12:54 9 11 mph 1023.4mb 74f 78f
12:48 8 10 mph 1023.4mb 74f 79f
12:42 9 10 mph 1023.4mb 74f 78f
12:36 8 10 mph 1023.5mb 74f 78f
12:30 10 11 mph 1023.5mb 75f 78f
12:24 6 8 mph 1023.4mb 76f 79f
12:18 6 7 mph 1023.5mb 76f 79f
12:12 6 7 mph 1023.5mb 76f 79f
12:06 8
mph
1023.6mb 76f 78f
12:00 6 8 mph 1023.6mb 76f 79f
11:54 8 9 mph 1023.7mb 76f 78f
11:48 7
mph
1023.7mb 76f 79f
11:42 5 6 mph 1023.9mb 76f 80f
11:36 5 8 mph 1023.9mb 76f 81f
11:30 7 9 mph 1024mb 76f 80f
11:24 6 9 mph 1024mb 76f 80f
11:18 7 8 mph 1024.1mb 76f 79f
11:12 7 8 mph 1024.2mb 76f 79f
11:06 7
mph
1024.2mb 76f 79f
11:00 7 8 mph 1024.3mb 75f 79f
10:54 7 9 mph 1024.5mb 75f 80f
10:48 7 10 mph 1024.6mb 75f 79f
10:42 7 9 mph 1024.7mb 75f 79f
10:36 6 8 mph 1024.8mb 75f 79f
10:30 3 8 mph 1024.9mb 75f 79f
10:24 3 6 mph 1024.8mb 75f 78f
10:18 6 7 mph 1024.8mb 75f 78f
10:12 5 6 mph 1024.7mb 75f 77f
10:06 5 6 mph 1024.7mb 74f 78f
9:54 6
mph
1024.8mb 74f 76f
9:48 3 6 mph - - -
9:42 3 5 mph 1024.8mb 74f 77f
9:36 3 5 mph 1024.7mb 74f 76f
9:30 5 6 mph 1024.6mb 74f 75f
9:24 3 5 mph 1024.7mb 74f 76f
9:18 5 6 mph 1024.7mb 74f 75f
9:12 6 7 mph 1024.7mb 74f 74f
9:06 6 7 mph 1024.8mb 74f 74f
9:00 5 7 mph 1024.8mb 74f 74f
8:54 6
mph
1024.9mb 74f 73f
8:48 5 6 mph 1024.9mb 74f 73f
8:42 5 6 mph 1024.8mb 74f 73f
8:36 5 7 mph 1024.8mb 74f 72f
8:30 7 8 mph 1024.9mb 74f 72f
8:24 6 9 mph 1025mb 74f 71f
8:18 6 9 mph 1025mb 74f 71f
8:12 9 10 mph 1024.9mb 74f 71f
8:06 7 8 mph 1024.9mb 74f 70f
8:00 7 8 mph 1024.9mb 74f 70f
7:54 7 8 mph 1024.9mb 74f 69f
7:42 6 7 mph 1024.9mb 74f 69f
7:36 5 7 mph 1025mb 74f 69f
7:24 6
mph
1024.9mb 74f 68f
7:18 6 8 mph 1024.8mb 74f 68f
7:12 5 6 mph 1024.8mb 74f 67f
7:00 5 8 mph 1024.8mb 74f 67f
6:54 6 7 mph 1024.7mb 74f 67f
6:48 7 8 mph 1024.6mb 74f 67f
6:42 7 8 mph 1024.6mb 74f 67f
6:36 7 9 mph 1024.5mb 74f 67f
6:30 8 10 mph 1024.5mb 74f 66f
6:24 8 10 mph 1024.5mb 74f 66f
6:18 8 10 mph - - -
6:12 8 10 mph 1024.4mb 74f 66f
6:06 7 9 mph 1024.4mb 74f 66f
6:00 7 9 mph 1024.4mb 74f 66f
5:54 7 9 mph 1024.4mb 74f 67f
5:48 8 10 mph - - -
5:36 9 11 mph 1024.3mb 74f 67f
5:30 8 10 mph 1024.2mb 74f 67f
5:24 8 10 mph 1024.2mb 74f 67f
5:18 8 10 mph 1024.3mb 74f 67f
5:12 6 9 mph 1024.3mb 74f 66f
5:06 7 11 mph 1024.3mb 74f 66f
5:00 8 10 mph 1024.2mb 74f 67f
4:54 8 10 mph 1024.2mb 74f 67f
4:48 8 11 mph 1024.1mb 74f 67f
4:42 9 13 mph 1024.1mb 74f 67f
4:36 9 11 mph 1024mb 74f 67f
4:30 10 13 mph 1024mb 74f 67f
4:24 10 13 mph 1024mb 74f 67f
4:18 11 13 mph 1024.1mb 74f 67f
4:12 11 13 mph 1024.1mb 74f 67f
4:06 11 14 mph 1024.2mb 74f 67f
4:00 10 13 mph 1024.2mb 74f 67f
3:54 10 13 mph 1024.3mb 74f 67f
3:48 11 13 mph 1024.3mb 74f 67f
3:42 10 13 mph 1024.3mb 74f 67f
3:36 10 13 mph 1024.3mb 74f 67f
3:30 11 13 mph 1024.3mb 74f -
3:24 11 14 mph 1024.4mb 74f 67f
3:12 11 13 mph 1024.4mb 74f 67f
3:00 10 13 mph 1024.5mb 75f 67f
2:54 10 14 mph 1024.4mb 75f 67f
2:48 11 13 mph 1024.4mb 75f 67f
2:42 11 13 mph 1024.4mb 75f -
2:36 11 13 mph 1024.4mb 75f -
2:30 10 13 mph 1024.5mb 75f 67f
2:24 11 13 mph 1024.5mb 75f 67f
2:18 9 13 mph - - -
2:12 10 13 mph 1024.7mb 75f 67f
2:06 10 14 mph 1024.8mb 75f 67f
2:00 10 11 mph 1024.9mb 75f 67f
1:54 9 10 mph 1024.9mb 75f 67f
1:48 10 13 mph 1024.9mb 75f 67f
1:42 10 13 mph 1024.9mb 75f 67f
1:36 9 13 mph 1024.9mb 75f 67f
1:30 10 13 mph 1024.8mb 75f 67f
1:24 10 13 mph 1024.9mb 75f 67f
1:18 10 11 mph 1025mb 75f 67f
1:12 9 13 mph 1025mb 75f 67f
1:06 11 13 mph 1025mb 75f 67f
1:00 11 13 mph 1024.9mb 75f 67f
12:54 11 14 mph 1024.9mb 75f 67f
12:48 11 13 mph 1024.9mb 75f 67f
12:42 11 14 mph 1024.9mb 75f 67f
12:36 13 14 mph 1024.9mb 75f 67f
12:30 11 14 mph 1025mb 75f 67f
12:24 11 14 mph 1024.9mb 75f 67f
12:18 11 13 mph 1024.9mb 75f 68f
12:00 13 14 mph 1024.6mb 75f 68f
Di 08/23 11:54 13 14 mph 1024.6mb 75f 68f
11:48 11 14 mph - - -
11:42 13 14 mph 1024.7mb 75f 68f
11:36 11 13 mph 1024.6mb 75f 68f
11:30 10 14 mph 1024.6mb 75f 69f
11:24 10 14 mph 1024.6mb 75f 69f
11:18 13 14 mph 1024.6mb 75f 68f
11:12 13 15 mph 1024.7mb 75f 69f
11:06 13 15 mph 1024.6mb 75f 69f
11:00 13 15 mph 1024.6mb 75f 69f
10:54 14 16 mph 1024.7mb 75f 69f
10:48 13 15 mph 1024.6mb 75f 69f
10:42 14 16 mph 1024.6mb 75f 69f
10:36 13 15 mph 1024.5mb 75f 69f
10:30 13 15 mph 1024.5mb 75f 69f
10:24 14 15 mph 1024.5mb 75f 69f
10:18 13 15 mph 1024.5mb 75f 69f
10:12 13 14 mph 1024.5mb 75f 69f
10:06 13 16 mph 1024.5mb 75f 69f
10:00 15 16 mph 1024.4mb 75f 69f
9:54 14 15 mph 1024.4mb 75f 69f
9:48 14 16 mph 1024.3mb - -
9:42 14 16 mph 1024.3mb 75f 69f
9:36 14 16 mph 1024.3mb 75f 69f
9:30 14 17 mph 1024.4mb 75f 70f
9:24 15 17 mph 1024.4mb 75f 69f
9:18 14 15 mph 1024.3mb 75f 69f
9:12  -  mph 1024.3mb 75f 70f
9:06  -  mph 1024.3mb 75f 69f
9:00  -  mph 1024.2mb 75f 69f
8:54  -  mph 1024.1mb 75f 69f
8:48 14 15 mph 1024.2mb - -
8:42 13 15 mph 1024.2mb 75f 70f
8:36 14 15 mph 1024.2mb 75f 70f
8:24  -  mph 1024mb 75f 70f
8:18  -  mph 1023.9mb - -
8:12  -  mph 1023.9mb 75f 70f
8:06  -  mph 1023.9mb 75f 70f
8:00 10 13 mph 1023.8mb 75f 70f
7:54 10 11 mph 1023.8mb 75f 71f
7:48 11 13 mph - 75f -
7:42 11 13 mph - 75f -
7:36 10 13 mph - 75f -
7:30 10 14 mph 1023.8mb 75f 72f
7:24 11 14 mph 1023.6mb 75f 72f
7:18  -  mph 1023.7mb - -
7:12  -  mph 1023.7mb 75f 73f
7:06  -  mph 1023.7mb 75f 73f
6:54 15 17 mph 1023.7mb 75f 73f
6:48  -  mph - 75f -
6:42  -  mph - 75f 74f
6:36  -  mph - 75f 74f
6:30 16 18 mph 1023.6mb 75f 74f
6:24 18 21 mph 1023.6mb 75f 74f
6:18 17 21 mph 1023.6mb - -
6:12 17 20 mph 1023.6mb 75f 74f
6:06 17 18 mph 1023.6mb 75f 74f
6:00  -  mph 1023.6mb 75f 75f
5:48 15 18 mph - - -
5:42 15 18 mph - 75f 75f
5:36 14 18 mph - 75f 75f
5:24 16 21 mph 1023.6mb 75f 75f
5:18 17 21 mph 1023.6mb 75f 75f
5:12 18 22 mph 1023.7mb 75f 75f
5:06 17 21 mph 1023.7mb 75f 75f
5:00 17 21 mph 1023.7mb 75f -
4:54 18 23 mph 1023.7mb 75f 75f
4:48 17 20 mph 1023.7mb 76f 75f
4:42 15 20 mph 1023.7mb 75f 75f
4:30 18 21 mph 1023.7mb 75f 75f
4:24 15 18 mph 1023.7mb 75f 75f
4:18 14 22 mph 1023.7mb 75f 75f
4:12 16 20 mph 1023.7mb 75f 75f
4:06 15 18 mph 1023.8mb 75f 75f
4:00 15 18 mph 1023.8mb 75f 75f
3:54 14 20 mph 1023.8mb 75f 75f
3:48 15 22 mph 1023.9mb 75f 75f
3:42 13 20 mph 1024mb 74f 75f
3:36 15 18 mph 1024mb 74f 75f
3:30 14 20 mph 1024mb 75f 75f
3:24 16 18 mph 1024.1mb 75f 75f
3:18 11 15 mph 1024.1mb 75f 75f
3:12 15 18 mph 1024.2mb 75f 74f
3:06 16 21 mph 1024.3mb 75f 74f
3:00 15 18 mph 1024.3mb 75f 73f
2:54 15 18 mph 1024.4mb 75f 73f
2:48 16 18 mph 1024.6mb 75f 73f
2:42 16 21 mph 1024.6mb 74f 73f
2:36 16 21 mph 1024.6mb 74f 73f
2:30 18 21 mph 1024.8mb 74f 72f
2:24 18 21 mph 1024.8mb 74f 72f
2:18 18 21 mph 1024.9mb 74f 72f
2:12 16 20 mph 1024.9mb 74f 72f
2:06 17 20 mph 1025mb 74f 72f
2:00 17 21 mph 1025mb - -
1:54 18 21 mph 1025.1mb 75f 72f
1:42 17 20 mph 1025.2mb 75f 72f
1:36 16 17 mph 1025.2mb 75f 72f
1:30 15 16 mph 1025.2mb 75f 72f
1:24 16 17 mph 1025.2mb 75f 72f
1:18 15 17 mph 1025.3mb 75f 72f
1:12 15 17 mph 1025.3mb 75f 72f
1:06 14 15 mph 1025.4mb 75f 72f
1:00 13 15 mph 1025.4mb 75f 73f
12:54 6 9 mph 1025.4mb 75f 73f
12:48 6 8 mph 1025.4mb 75f 73f
12:42 7 8 mph 1025.4mb 75f 73f
12:36 6 7 mph 1025.4mb 75f 73f
12:30 6
mph
1025.4mb 75f 73f
12:24 6
mph
1025.5mb 75f 73f
12:18 5 6 mph 1025.5mb 75f 73f
12:12 5 7 mph 1025.6mb 75f 72f
12:06 6 7 mph 1025.6mb 75f 72f
12:00 6 7 mph 1025.6mb 75f 72f
11:54 7 8 mph 1025.7mb 75f 72f
11:48 6 7 mph 1025.7mb 75f 72f
11:42 6 7 mph 1025.7mb 75f 71f
11:36 6 7 mph 1025.8mb 75f 71f
11:30 5 6 mph 1025.8mb - -
11:24 5 7 mph 1025.8mb 75f 71f
11:18 6 7 mph 1025.8mb 75f 71f
11:12 6 8 mph 1025.8mb 75f 71f
11:06 6 7 mph 1025.9mb 75f 71f
11:00 6 7 mph 1025.9mb 75f 71f
10:54 6 7 mph 1026mb 75f 71f
10:48 6 7 mph 1026mb 75f 71f
10:42 6 7 mph 1026mb 75f 71f
10:36 6 7 mph 1026mb 75f 71f
10:30 6 7 mph 1026mb 75f 71f
10:24 6 7 mph 1026mb 75f 71f
10:18 6 8 mph 1026mb 75f 71f
10:12 7 8 mph 1026mb 75f 70f
10:06 6 8 mph 1025.9mb 75f 70f
10:00 7 8 mph 1025.9mb 75f 70f
9:54 7 8 mph 1025.8mb 75f 70f
9:48 6 8 mph - - -
9:42 6 8 mph 1025.8mb 75f 70f
9:36 6 8 mph 1025.7mb 75f 70f
9:30 6 8 mph 1025.7mb 75f 70f
9:24 5 8 mph 1025.6mb 74f 70f
9:18 5 9 mph 1025.5mb 74f 69f
9:12 6 7 mph 1025.5mb 74f 69f
9:06 3 6 mph 1025.6mb 74f 69f
9:00 3 8 mph 1025.6mb 74f 69f
8:54 5 9 mph 1025.6mb 74f 69f
8:48 5 8 mph 1025.5mb 74f 69f
8:42 3 8 mph 1025.5mb 74f 68f
8:36 6 8 mph 1025.5mb 74f 68f
8:30 3 7 mph 1025.4mb 74f 68f
8:24 5 7 mph 1025.4mb 74f 67f
8:18 3 6 mph 1025.4mb 74f 67f
8:12 5 6 mph 1025.3mb 74f 66f
8:06 5 8 mph 1025.3mb 74f 66f
8:00 5 7 mph 1025.2mb 74f 65f
7:54 5 8 mph 1025.3mb 74f 65f
7:48 3 7 mph 1025.2mb 74f 65f
7:42 3 7 mph 1025.1mb 74f 65f
7:36 3 7 mph 1025.1mb 74f 65f
7:30 3 7 mph 1025mb 74f 64f
7:24 3 6 mph 1024.9mb 74f 64f
7:18 3 7 mph 1024.9mb 74f 64f
7:12 3 7 mph 1024.8mb 74f 63f
7:06 3 7 mph 1024.8mb 74f 62f
7:00 2 7 mph 1024.8mb 74f 62f
6:54 3 7 mph 1024.7mb 74f 62f
6:48 5 6 mph 1024.6mb 74f 62f
6:42 5 6 mph 1024.5mb 74f 62f
6:36 3 7 mph 1024.4mb 74f 61f
6:30 2 7 mph 1024.5mb 74f 61f
6:24 2 6 mph 1024.4mb 74f 61f
6:18 2 7 mph 1024.4mb 74f 61f
6:12 2 5 mph 1024.4mb 74f 61f
6:06 3 7 mph 1024.3mb 74f 60f
6:00 5 7 mph 1024.2mb 74f 60f
5:48 5 7 mph 1023.9mb 74f 60f
5:42 5 7 mph 1023.9mb 74f 61f
5:36 3 6 mph 1023.8mb 74f 61f
5:30 3 6 mph 1023.7mb 74f 60f
5:24 3 6 mph 1023.6mb 74f 60f
5:18 3 6 mph 1023.5mb 74f 60f
5:12 5 6 mph 1023.4mb 74f 61f
5:06 5 6 mph 1023.3mb 74f 61f
5:00 5 7 mph 1023.2mb 74f 61f
4:54 3 6 mph 1023.1mb 74f 61f
4:48 3 6 mph 1023.1mb 74f 61f
4:42 3 7 mph 1023.2mb 74f 61f
4:36 3 6 mph 1023.1mb 75f 61f
4:30 5 7 mph 1023.1mb 74f 61f
4:24 5 6 mph 1023mb 74f 61f
4:18 5 6 mph 1022.9mb 74f 61f
4:12 3 6 mph 1022.9mb 74f 61f
4:06 3 7 mph 1022.8mb 74f 62f
4:00 5 7 mph 1022.8mb 75f 62f
3:54 6 8 mph 1022.8mb 75f 62f
3:48 6 7 mph 1022.7mb 75f 62f
3:42 6 9 mph 1022.7mb 75f 62f
3:36 6 9 mph 1022.6mb 75f 62f
3:30 5 10 mph 1022.6mb 75f 62f
3:24 6 9 mph 1022.6mb 75f 62f
3:18 5 8 mph 1022.7mb 75f 62f
3:12 6 9 mph 1022.6mb 75f 62f
3:06 6 8 mph 1022.6mb 75f 62f
3:00 3 7 mph 1022.7mb 75f 62f
2:54 5 10 mph 1022.7mb 75f 62f
2:48 6 9 mph 1022.8mb 75f 62f
2:42 6 9 mph 1022.8mb 75f -
2:36 5 8 mph 1022.7mb 75f -
2:30 6 8 mph 1022.7mb 75f 62f
2:24 6 8 mph 1022.7mb 75f 62f
2:18 6 8 mph 1022.6mb 75f 62f
2:12 6 9 mph 1022.6mb 75f 62f
2:06 6 10 mph 1022.6mb 75f 62f
2:00 6 8 mph 1022.5mb 75f 63f
1:54 5 7 mph 1022.6mb 75f 63f
1:48 5 7 mph 1022.5mb 75f 63f
1:42 3 7 mph 1022.4mb - -
1:36 5 7 mph 1022.3mb - -
1:30 6 8 mph 1022.3mb 75f 64f
1:24 6 8 mph 1022.2mb 75f 64f
1:18 5 8 mph 1022.2mb 76f 64f
1:12 6 7 mph 1022.1mb 76f 64f
1:06 3 7 mph 1022.1mb 76f 64f
1:00 5 8 mph 1022.1mb 76f 64f
12:54 6 7 mph 1022.1mb 76f 64f
12:48 5 7 mph 1022.1mb 76f 64f
12:36 6 8 mph 1022.1mb 76f 64f
12:30 6 8 mph 1022.1mb 76f 64f
12:24 6 8 mph 1021.9mb 76f 64f
12:18 6 8 mph 1021.8mb 76f 65f
12:12 5 7 mph 1021.8mb 76f 65f
12:06 5 7 mph 1021.8mb 76f 65f
12:00 5 6 mph 1021.7mb 76f 65f
Mo 08/22 11:54 3 6 mph 1021.7mb 76f 65f
11:48 5 7 mph - - -
11:42 3 6 mph 1021.6mb 76f 66f
11:36 5 7 mph 1021.6mb 76f 66f
11:30 5 7 mph 1021.5mb 76f 66f
11:24 5 6 mph 1021.6mb 76f 66f
11:18 6 7 mph 1021.5mb 76f 66f
11:12 6 8 mph 1021.4mb 76f 66f
11:06 6 7 mph 1021.3mb 76f 66f
11:00 5 6 mph 1021.2mb 76f 66f
10:54 5 6 mph 1021.1mb 76f 67f
10:48 5 7 mph 1021mb 76f 67f
10:42 5 6 mph 1020.9mb 76f 67f
10:36 5 7 mph 1020.9mb 76f 67f
10:30 3 7 mph 1020.9mb 76f 67f
10:24 5 8 mph 1020.8mb 76f 67f
10:18 6 8 mph - - -
10:12 6 8 mph - 76f 67f
10:06 5 7 mph - 76f 68f
10:00  -  mph 1020.4mb 76f 68f
9:54  -  mph 1020.3mb 76f 68f
9:48  -  mph 1020.2mb 76f 69f
9:42 5 8 mph 1020.2mb 76f 69f
9:36 3 8 mph 1020.1mb 76f 69f
9:30 3 7 mph 1020mb 76f 69f
9:18 5 10 mph 1019.7mb 76f 69f
9:12  -  mph 1019.6mb 76f 70f
9:06  -  mph 1019.4mb 76f 70f
9:00  -  mph 1019.3mb 76f 70f
8:54  -  mph 1019.1mb 76f 70f
8:48 6 9 mph 1019.1mb - -
8:42 6 15 mph 1018.9mb 76f 71f
8:36 6 11 mph 1018.7mb 76f 71f
8:30 6 9 mph - 76f 71f
8:24 7 10 mph - 76f 71f
8:18 7 11 mph 1018.3mb - -
8:12 6 13 mph 1018.2mb 75f 72f
8:06 6 13 mph 1018mb 75f 72f
8:00 7 11 mph - - -
7:54 6 10 mph 1017.7mb 75f 72f
7:48  -  mph 1017.5mb - -
7:42  -  mph 1017.3mb 75f -
7:36  -  mph 1017.2mb 75f -
7:30 5 11 mph 1017.1mb 75f 73f
7:24 6 8 mph 1016.9mb 75f 74f
7:18  -  mph 1016.7mb - -
7:12  -  mph 1016.5mb 75f 74f
7:06  -  mph 1016.4mb 75f 74f
7:00  -  mph 1016.3mb 75f 75f
6:54  -  mph 1016.2mb 75f 75f
6:48 7 13 mph - - -
6:42 9 17 mph - 75f -
6:36 6 17 mph - 75f -
6:30 8 16 mph - 75f 76f
6:24 9 17 mph - 75f 76f
6:18 7 14 mph - - -
6:12 9 20 mph - 75f 77f
6:06 9 21 mph - 75f 77f
6:00 11 17 mph 1015.1mb 75f 77f
5:54 9 15 mph 1015mb 75f 77f
5:48 7 21 mph - 75f -
5:42 10 20 mph - 75f 77f
5:36 8 14 mph - 75f 78f
5:30 10 16 mph 1014.5mb 75f 78f
5:24 8 17 mph 1014.4mb 75f 78f
5:18 10 18 mph 1014.2mb 75f 78f
5:12 8 16 mph 1014.1mb 75f 79f
5:06 11 18 mph 1014mb 75f 78f
5:00 8 17 mph 1014mb 75f 79f
4:54 10 18 mph 1013.9mb 75f 78f
4:48 6 13 mph 1013.8mb 75f 79f
4:42 8 14 mph 1013.7mb 75f 79f
4:36 11 16 mph 1013.7mb 74f 78f
4:30 10 18 mph 1013.7mb 74f 78f
4:24 8 17 mph 1013.6mb 74f 79f
4:18 10 16 mph 1013.5mb 74f 78f
4:12 11 20 mph 1013.3mb 74f 78f
4:06 14 22 mph 1013.2mb 74f 78f
3:54 10 18 mph 1013.1mb 75f 78f
3:48 9 16 mph 1013mb 75f 78f
3:42 8 17 mph 1013mb 75f 78f
3:36 9 18 mph 1013mb 74f 78f
3:30 15 23 mph 1012.8mb 74f 78f
3:24 13 18 mph 1012.8mb 75f 78f
3:18 7 21 mph 1012.8mb 75f 79f
3:12 11 21 mph 1012.7mb 75f 78f
3:06 9 18 mph 1012.7mb 75f 79f
3:00 14 20 mph 1012.7mb 75f 78f
2:54 14 21 mph 1012.7mb 75f 78f
2:48 21 24 mph - - -
2:42 14 21 mph 1012.6mb - -
2:36 15 24 mph 1012.6mb - -
2:30 13 20 mph 1012.5mb - -
2:24 13 21 mph 1012.6mb - -
2:18 14 21 mph 1012.5mb - -
2:12 14 22 mph 1012.5mb 74f 78f
2:06 17 25 mph 1012.3mb 74f 78f
2:00 16 23 mph 1012.3mb 74f 78f
1:54 14 22 mph 1012.3mb 74f 78f
1:42 14 20 mph 1012.2mb 75f 78f
1:36 14 20 mph 1012.2mb 75f 78f
1:30 11 21 mph 1012.1mb 75f 79f
1:24 16 26 mph 1012mb 75f 77f
1:18 16 25 mph 1011.8mb 75f 78f
1:12 15 24 mph 1011.8mb 75f 78f
1:06 15 25 mph 1011.8mb 75f 78f
1:00 14 18 mph 1011.9mb 75f 78f
12:54 16 22 mph 1011.9mb 75f 78f
12:48 10 18 mph 1011.9mb 75f 78f
12:42 14 23 mph 1011.9mb 75f 77f
12:36 14 21 mph 1011.9mb 75f 77f
12:30 14 21 mph 1011.9mb 75f 77f
12:24 14 20 mph 1011.9mb 75f 78f
12:18 14 20 mph 1011.8mb 75f 77f
12:12 13 18 mph 1011.8mb 75f 77f
12:06 11 17 mph 1011.9mb 75f 77f
12:00 11 18 mph 1011.9mb - -
11:54 13 17 mph 1011.8mb 75f 76f
11:48 15 20 mph 1011.8mb 76f 76f
11:42 10 22 mph 1011.9mb 75f 77f
11:36 15 22 mph 1011.8mb 76f 76f
11:30 14 21 mph 1011.9mb 76f 76f
11:24 13 21 mph 1011.8mb 76f 76f
11:18 15 21 mph 1011.8mb 76f 76f
11:12 13 22 mph 1011.8mb 76f 76f
11:06 11 20 mph 1011.7mb 76f 76f
11:00 15 21 mph 1011.7mb 76f 76f
10:54 13 18 mph 1011.6mb 76f 76f
10:48 15 20 mph 1011.6mb 76f 75f
10:42 13 20 mph 1011.6mb 76f 76f
10:36 11 21 mph 1011.5mb 76f 76f
10:30 13 21 mph 1011.5mb 76f 75f
10:24 15 22 mph 1011.5mb 76f 75f
10:18 10 18 mph 1011.4mb 76f 76f
10:12 10 18 mph 1011.4mb 76f 76f
10:06 13 20 mph 1011.3mb 76f 74f
10:00 11 16 mph 1011.2mb 77f 74f
9:54 11 16 mph 1011.2mb 77f 74f
9:48 11 18 mph 1011.1mb 77f 74f
9:42 8 15 mph 1011.1mb 77f 74f
9:36 11 17 mph 1011mb 77f 73f
9:30 11 16 mph 1011mb 77f 73f
9:24 13 18 mph 1010.9mb 77f 73f
9:18 10 20 mph 1010.8mb 77f 73f
9:12 11 18 mph 1010.7mb 77f 73f
9:06 8 18 mph 1010.6mb 77f 73f
9:00 10 16 mph 1010.6mb 77f 73f
8:48 9 13 mph 1010.4mb 77f 72f
8:42 6 14 mph 1010.5mb 77f 72f
8:36 10 14 mph 1010.4mb 77f 71f
8:24 8 10 mph 1010.3mb 76f 71f
8:18 8 11 mph 1010.3mb 76f 71f
8:12 8 13 mph 1010.2mb 76f 71f
8:06 8 17 mph 1010.2mb 76f 71f
8:00 9 13 mph 1010.1mb 76f 71f
7:54 9 14 mph 1010.1mb 76f 70f
7:48 8 14 mph 1010mb 76f 70f
7:42 7 11 mph 1010mb 76f 70f
7:36 6 10 mph 1009.9mb 76f 70f
7:30 6 10 mph 1009.7mb 76f 70f
7:24 7 13 mph 1009.7mb 76f 69f
7:18 6 9 mph 1009.6mb 76f 69f
7:12 5 8 mph 1009.6mb 76f 69f
7:06 5 7 mph 1009.5mb 76f 69f
7:00 5 6 mph 1009.4mb 76f 69f
6:54 5 8 mph 1009.2mb 76f 69f
6:48 7 8 mph 1009mb 76f 68f
6:42 7 9 mph 1008.9mb 76f 69f
6:36 6 8 mph 1008.6mb 76f 69f
6:30 5 8 mph 1008.7mb 76f 69f
6:18 7 9 mph 1008.9mb 76f 69f
6:12 3 7 mph 1008.8mb 76f 69f
6:06 6 8 mph 1008.7mb 76f 69f
6:00 5 6 mph 1008.7mb 76f 69f
5:54 5 6 mph 1008.7mb 76f 69f
5:48 5 6 mph 1008.7mb 76f 69f
5:42 6 8 mph 1008.7mb 76f 69f
5:36 7 9 mph 1008.4mb 76f 69f
5:30 8 10 mph 1008.4mb 76f 69f
5:24 6 10 mph 1008.6mb 76f 69f
5:18 6 11 mph 1008.6mb 76f 69f
5:12 7 13 mph 1008.6mb 76f 69f
5:06 10 14 mph 1008.4mb 76f 69f
5:00 10 11 mph 1008.6mb 76f 69f
4:48 10 16 mph 1008.4mb 76f 69f
4:42 8 11 mph 1008.4mb 76f 70f
4:36 8 13 mph 1008.5mb 76f 70f
4:30 7 11 mph 1008.6mb 76f 71f
4:24 8 18 mph 1008.5mb 77f 72f
4:18 9 16 mph 1008.3mb 77f 72f
4:12 10 16 mph 1008.2mb 77f 72f
4:06 10 14 mph 1008.1mb 76f 72f
3:54 8 13 mph 1007.8mb 76f 72f
3:48 8 14 mph 1007.8mb 76f 73f
3:42 8 14 mph 1007.8mb 76f 73f
3:36 14 22 mph 1007.9mb 76f 73f
3:30 21 24 mph 1007.8mb 76f 75f
3:24 18 22 mph 1007.1mb 76f 76f
3:18 18 22 mph 1007.1mb 76f 77f
3:12 18 22 mph 1007.1mb 76f 77f
3:06 16 21 mph 1007.2mb 76f 76f
3:00 20 22 mph 1007.3mb 76f 76f
2:54 18 21 mph 1007.4mb 76f 76f
2:48 17 20 mph 1007.4mb 76f 76f
2:42 18 21 mph 1007.4mb 75f -
2:36 17 21 mph 1007.3mb 75f -
2:30 16 18 mph 1007.4mb 75f 76f
2:24 15 18 mph 1007.4mb 75f 76f
2:12 17 20 mph 1007.6mb 75f 75f
2:06 18 21 mph 1007.7mb 75f 75f
2:00 17 20 mph 1007.7mb 75f 75f
1:48 15 18 mph 1007.8mb 75f 75f
1:42 13 16 mph - - -
1:36 14 15 mph - - -
1:30 14 15 mph 1008mb 76f 75f
1:24 14 16 mph 1008mb 76f 75f
1:18 13 15 mph 1008.1mb 76f 75f
1:12 10 14 mph 1008.2mb 76f 75f
1:06 13 16 mph 1008.2mb 76f 75f
1:00 14 17 mph 1008.3mb 76f 75f
12:54 15 17 mph 1008.3mb 76f 75f
12:48 15 17 mph - - -
12:42 16 18 mph 1008.4mb 76f 75f
12:30 13 15 mph 1008.6mb 76f 75f
12:24 13 14 mph 1008.6mb 76f 75f
12:18 11 15 mph 1008.7mb 76f 74f
12:12 13 14 mph 1008.8mb 76f 74f
12:06 11 14 mph 1008.9mb 77f 74f
12:00 10 13 mph 1009.1mb 77f 75f
So 08/21 11:54 9 11 mph 1009.2mb 77f 74f
11:48 9 10 mph 1009.2mb - -
11:42 9 11 mph 1009.3mb 77f 74f
11:36 9 11 mph 1009.3mb 77f 74f
11:30 9 11 mph 1009.4mb 77f 74f
11:24 10 11 mph 1009.5mb 77f 73f
11:18 9 11 mph 1009.6mb 77f 73f
11:12 10 13 mph 1009.7mb 77f 73f
11:06 10 13 mph 1009.8mb 77f 73f
11:00 10 13 mph 1009.8mb 77f 73f
10:54 10 11 mph 1009.7mb 77f 73f
10:48 9 11 mph 1009.8mb - -
10:42 9 11 mph 1009.8mb 77f 73f
10:36 11 14 mph 1009.8mb 78f 73f
10:30  -  mph 1010mb 78f 73f
10:24  -  mph 1010mb 78f 73f
10:18 9 13 mph 1010mb - -
10:12 9 11 mph 1010mb 78f 73f
10:06 9 13 mph 1010.1mb 78f 73f
9:54  -  mph 1010.1mb 78f 73f
9:48  -  mph - 78f -
9:42  -  mph - 78f -
9:36  -  mph - 78f -
9:30  -  mph 1010.3mb 78f 72f
9:24  -  mph 1010.4mb 78f 72f
9:12  -  mph - 78f 72f
9:06  -  mph - 78f 72f
9:00  -  mph 1010.9mb 78f 72f
8:54  -  mph 1011mb 78f 72f
8:48 9 10 mph - - -
8:42 8 10 mph - 78f 72f
8:36 8 10 mph - 78f 72f
8:30 8 10 mph - 78f 72f
8:24 8 10 mph - 78f 72f
8:18 8 10 mph - 78f 72f
8:12  -  mph - 78f 72f
8:06  -  mph - 78f 72f
8:00  -  mph 1011.1mb 78f 72f
7:54  -  mph 1011.1mb 78f 72f
7:42  -  mph 1010.9mb 78f -
7:30  -  mph 1010.9mb 78f 72f
7:24  -  mph 1010.9mb 78f 72f
7:18 9 10 mph 1010.9mb 78f -
7:12 8 10 mph 1011mb 78f 72f
7:06 8 10 mph 1011.1mb 78f 72f
7:00 8 10 mph 1011.1mb 78f 72f
6:54 8 9 mph 1011.1mb 78f 72f
6:48  -  mph - 78f -
6:42  -  mph - 78f -
6:36  -  mph - 78f -
6:30  -  mph 1011mb 78f 72f
6:24  -  mph 1011mb 78f 72f
6:18  -  mph 1011.2mb - -
6:12  -  mph 1011.3mb 78f 72f
6:06  -  mph 1011.3mb 78f 72f
6:00  -  mph 1011.3mb 78f 72f
5:54  -  mph 1011.3mb 78f 72f
5:48 10 13 mph - 78f -
5:42 10 13 mph - 78f 73f
5:36 9 13 mph - 78f 73f
5:30 9 11 mph 1011.3mb 78f 73f
5:24 10 13 mph 1011.3mb 78f 73f
5:18 10 13 mph 1011.3mb 78f 73f
5:12 11 14 mph 1011.4mb 77f 73f
5:00 10 13 mph 1011.5mb 78f 73f
4:54 11 13 mph 1011.5mb 78f 73f
4:48 11 14 mph 1011.5mb 77f 73f
4:42 13 14 mph 1011.7mb 78f 73f
4:36 13 14 mph 1011.8mb 78f 73f
4:30 11 13 mph 1011.7mb 78f 73f
4:24 11 13 mph 1011.7mb 78f 74f
4:18 10 13 mph 1011.6mb 78f 74f
4:12 11 13 mph 1011.7mb 77f 74f
4:06 13 14 mph 1011.7mb 77f 74f
4:00 13 16 mph 1011.7mb 77f -
3:54 13 17 mph 1011.7mb 77f 74f
3:48 15 17 mph 1011.7mb 77f 74f
3:42 14 16 mph 1011.7mb 77f 74f
3:36 14 16 mph 1011.7mb 77f 74f
3:30 14 16 mph 1011.8mb 77f 74f
3:24 15 16 mph 1011.8mb 77f 74f
3:12 14 15 mph 1011.8mb 77f 74f
3:06 14 16 mph 1011.9mb 77f 74f
3:00 13 16 mph 1012mb 77f 74f
2:54 14 16 mph 1012mb 77f 74f
2:48 14 15 mph 1012.2mb 77f 74f
2:42 13 16 mph 1012.3mb 78f 74f
2:36 14 16 mph 1012.4mb 78f 74f
2:30 13 14 mph 1012.4mb 77f 75f
2:24 11 13 mph 1012.5mb 77f 75f
2:18 11 13 mph 1012.5mb 77f 75f
2:12 11 16 mph 1012.5mb 76f 75f
2:06 14 15 mph 1012.6mb 76f 75f
2:00 11 16 mph 1012.6mb 76f 75f
1:54 14 15 mph 1012.7mb 76f 75f
1:48 14 15 mph 1012.7mb 76f 75f
1:42 13 15 mph 1012.8mb 76f 75f
1:36 13 14 mph 1013mb 76f 75f
1:30 11 14 mph 1013mb 75f 75f
1:24 11 14 mph 1013.1mb 76f 75f
1:18 14 15 mph 1013.2mb 76f 75f
1:12 13 15 mph 1013.2mb 75f 75f
1:06 13 15 mph 1013.3mb 75f 75f
1:00 11 14 mph 1013.4mb 75f 75f
12:54 11 16 mph 1013.5mb 75f 75f
12:48 13 15 mph - - -
12:42 13 15 mph 1013.4mb 75f 76f
12:36 14 15 mph 1013.4mb 75f 76f
12:30 13 14 mph 1013.5mb 75f -
12:18 10 11 mph 1013.6mb 75f 77f
12:12 9 11 mph 1013.6mb 75f 77f
12:06 9 10 mph 1013.6mb 75f 76f
12:00 9 10 mph 1013.6mb 75f 76f
11:54 10 14 mph 1013.8mb 76f 76f
11:48 10 13 mph 1013.8mb 76f 76f
11:42 11 13 mph 1013.8mb 76f 76f
11:36 10 13 mph 1013.9mb 76f 76f
11:30 9 13 mph 1014mb 76f 76f
11:24 10 13 mph 1014mb 76f 75f
11:18 10 13 mph 1014mb 76f 75f
11:12 10 13 mph 1014mb 76f 76f
11:06 10 14 mph 1014.1mb 76f 75f
11:00 13 14 mph 1014.2mb 76f 75f
10:54 11 13 mph 1014.3mb 76f 75f
10:48 10 14 mph 1014.3mb 76f 75f
10:42 10 13 mph 1014.4mb 76f 75f
10:36 9 13 mph 1014.5mb 76f 75f
10:30 10 14 mph 1014.5mb 76f 75f
10:24 10 14 mph 1014.3mb 76f 74f
10:18 11 14 mph 1014.3mb 77f 74f
10:12 10 13 mph 1014.3mb 77f 74f
10:06 10 13 mph 1014.5mb 77f 74f
10:00 10 15 mph 1014.5mb 77f 74f
9:54 11 14 mph 1014.5mb 77f 74f
9:48 10 14 mph 1014.6mb 77f 74f
9:42 11 15 mph 1014.6mb 77f 74f
9:36 13 14 mph 1014.6mb 77f 74f
9:30 11 14 mph 1014.6mb 77f 74f
9:24 11 14 mph 1014.6mb 77f 74f
9:12 13 15 mph 1014.7mb 77f 73f
9:00 13 14 mph 1014.6mb 77f 73f
8:48 13 16 mph - - -
8:42 11 15 mph 1014.7mb 77f 73f
8:36 11 15 mph 1014.7mb 77f 73f
8:30 13 15 mph 1014.6mb 77f 73f
8:18 11 14 mph 1014.5mb 77f 73f
8:12 10 13 mph 1014.4mb 77f 73f
8:06 10 14 mph 1014.4mb 77f 73f
8:00 11 14 mph 1014.4mb 77f 73f
7:54 11 14 mph 1014.4mb 77f 73f
7:48 11 14 mph 1014.4mb 77f 73f
7:42 14 16 mph 1014.2mb 77f 72f
7:36 13 15 mph 1014.2mb 77f 72f
7:30 13 15 mph 1014.2mb 77f 72f
7:24 10 13 mph 1014.2mb 77f 72f
7:18 9 10 mph 1014.3mb 77f 72f
7:12 8 10 mph 1014.3mb 77f 72f
7:06 8 10 mph 1014.3mb 77f 71f
7:00 8 10 mph 1014.3mb 77f 71f
6:54 8 10 mph 1014.3mb 76f 71f
6:42 9 11 mph 1014.2mb 76f 71f
6:36 10 13 mph 1014.1mb 76f 71f
6:30 10 13 mph 1014.1mb 76f 71f
6:24 10 11 mph 1014.1mb 76f 71f
6:18 10 11 mph 1014.1mb 76f 71f
6:12 9 11 mph 1014.1mb 76f 70f
6:06 9 13 mph 1014mb 76f 70f
6:00 9 11 mph 1014.1mb 76f 71f
5:54 10 11 mph 1014.1mb 76f 70f
5:48 9 10 mph - - -
5:42 8 9 mph 1014.2mb 77f 70f
5:36 8 10 mph 1014.2mb 76f 70f
5:30 9 10 mph 1014.2mb 77f 70f
5:24 9 11 mph 1014.2mb 77f 70f
5:18 10 13 mph 1014.2mb 76f 70f
5:12 10 14 mph 1014.1mb 76f 70f
5:06 10 13 mph 1014.1mb 76f 70f
5:00 10 13 mph 1014.1mb 76f 71f
4:54 10 13 mph 1014.1mb 76f 70f
4:48 10 13 mph - - -
4:42 10 13 mph 1014.2mb 76f 70f
4:36 10 11 mph 1014.2mb 76f 70f
4:30 9 13 mph 1014.2mb 76f 70f
4:18 9 13 mph 1014.3mb 76f 71f
4:12 10 11 mph 1014.2mb 76f 71f
4:06 10 14 mph 1014.2mb 77f 70f
4:00 11 14 mph 1014.3mb 77f 70f
3:54 10 13 mph 1014.3mb 76f 70f
3:48 9 11 mph 1014.4mb 77f 70f
3:36 8 10 mph 1014.5mb 77f 71f
3:24 9 11 mph 1014.6mb 77f 70f
3:18 10 13 mph 1014.6mb 77f 70f
3:12 11 14 mph 1014.6mb 77f 71f
3:06 13 14 mph 1014.7mb 77f 71f
2:48 10 13 mph 1014.8mb 77f 71f
2:42 11 14 mph 1014.9mb 76f 71f
2:36 11 14 mph 1014.9mb 76f 71f
2:30 11 13 mph 1014.9mb 76f 71f
2:24 10 11 mph 1015mb 76f 71f
2:18 9 11 mph 1015mb - -
2:12 10 13 mph 1015mb 76f 71f
2:06 10 13 mph 1015.1mb 76f 71f
2:00 11 13 mph 1015.1mb 76f 71f
1:54 11 13 mph 1015.1mb 76f 71f
1:48 11 13 mph 1015.1mb 76f 71f
1:42 10 13 mph 1015.3mb 75f -
1:30 10 11 mph 1015.3mb 74f 71f